createdAt,value
2023-05-14T09:56:09.896Z,5.25
2023-05-14T09:58:37.678Z,4.53
2023-05-14T10:01:06.653Z,5.00
2023-05-14T10:03:34.427Z,4.50
2023-05-14T10:06:07.216Z,3.65
2023-05-14T10:08:36.887Z,3.92
2023-05-14T10:11:07.852Z,4.38
2023-05-14T10:13:40.891Z,4.10
2023-05-14T10:16:15.678Z,3.95
2023-05-14T10:18:48.579Z,3.72
2023-05-14T10:21:18.460Z,4.03
2023-05-14T10:23:47.440Z,3.85
2023-05-14T10:26:15.670Z,3.67
2023-05-14T10:31:13.896Z,3.50
2023-05-14T10:33:50.195Z,3.42
2023-05-14T10:36:19.035Z,3.80
2023-05-14T10:38:47.775Z,3.60
2023-05-14T10:41:17.785Z,3.30
2023-05-14T10:43:46.888Z,3.30
2023-05-14T10:46:15.765Z,3.42
2023-05-14T10:48:44.716Z,3.50
2023-05-14T10:51:13.415Z,3.17
2023-05-14T10:53:43.491Z,3.28
2023-05-14T10:56:12.881Z,3.30
2023-05-14T10:58:43.701Z,3.70
2023-05-14T11:01:14.157Z,3.45
2023-05-14T11:03:43.408Z,3.05
2023-05-14T11:06:13.037Z,3.33
2023-05-14T11:08:41.644Z,3.10
2023-05-14T11:11:10.484Z,3.15
2023-05-14T11:13:38.468Z,3.25
2023-05-14T11:18:41.717Z,3.70
2023-05-14T11:21:09.659Z,3.50
2023-05-14T11:23:37.417Z,3.63
2023-05-14T11:26:05.479Z,3.25
2023-05-14T11:28:33.301Z,3.53
2023-05-14T11:31:01.012Z,3.40
2023-05-14T11:33:28.894Z,3.30
2023-05-14T11:35:58.067Z,3.50
2023-05-14T11:38:25.784Z,3.60
2023-05-14T11:40:54.475Z,3.92
2023-05-14T11:43:23.753Z,3.42
2023-05-14T11:45:52.559Z,3.13
2023-05-14T11:48:20.501Z,3.85
2023-05-14T11:50:49.622Z,3.15
2023-05-14T11:53:26.367Z,3.08
2023-05-14T11:55:55.282Z,3.13
2023-05-14T11:58:23.268Z,3.42
2023-05-14T12:00:52.409Z,3.08
2023-05-14T12:03:25.510Z,2.90
2023-05-14T12:05:57.895Z,3.08
2023-05-14T12:08:31.266Z,3.35
2023-05-14T12:11:00.542Z,3.33
2023-05-14T12:13:29.332Z,3.10
2023-05-14T12:15:58.614Z,3.28
2023-05-14T12:18:28.190Z,3.10
2023-05-14T12:20:56.320Z,3.30
2023-05-14T12:23:30.215Z,3.20
2023-05-14T12:26:03.500Z,3.58
2023-05-14T12:28:31.649Z,3.20
2023-05-14T12:31:00.064Z,3.10
2023-05-14T12:33:28.546Z,2.80
2023-05-14T12:35:58.890Z,3.08
2023-05-14T12:38:29.869Z,3.00
2023-05-14T12:40:57.596Z,3.42
2023-05-14T12:43:25.419Z,3.10
2023-05-14T12:45:53.049Z,3.30
2023-05-14T12:48:20.728Z,3.08
2023-05-14T12:50:48.809Z,3.10
2023-05-14T12:53:16.954Z,2.75
2023-05-14T12:55:46.323Z,3.20
2023-05-14T12:58:13.979Z,2.75
2023-05-14T13:00:41.817Z,3.10
2023-05-14T13:03:09.642Z,3.10
2023-05-14T13:10:32.860Z,2.92
2023-05-14T13:13:02.929Z,3.10
2023-05-14T13:15:31.606Z,3.60
2023-05-14T13:17:59.445Z,3.72
2023-05-14T13:22:55.482Z,2.60
2023-05-14T13:27:51.697Z,3.25
2023-05-14T13:30:21.260Z,3.10
2023-05-14T13:32:49.411Z,2.80
2023-05-14T13:35:17.292Z,2.97
2023-05-14T13:37:45.285Z,2.83
2023-05-14T13:42:41.061Z,2.42
2023-05-14T13:45:09.699Z,3.03
2023-05-14T13:47:40.093Z,2.90
2023-05-14T13:50:08.821Z,2.80
2023-05-14T13:52:37.811Z,3.08
2023-05-14T13:55:06.461Z,2.78
2023-05-14T13:57:34.132Z,2.70
2023-05-14T14:00:02.304Z,2.58
2023-05-14T14:02:31.286Z,3.17
2023-05-14T14:05:00.914Z,3.00
2023-05-14T14:07:28.586Z,2.83
2023-05-14T14:09:56.303Z,2.65
2023-05-14T14:12:24.069Z,2.67
2023-05-14T14:14:52.241Z,3.20
2023-05-14T14:17:20.030Z,2.80
2023-05-14T14:19:47.834Z,3.35
2023-05-14T14:22:17.429Z,2.88
2023-05-14T14:24:45.306Z,2.70
2023-05-14T14:27:13.012Z,2.78
2023-05-14T14:29:40.704Z,2.65
2023-05-14T14:32:08.873Z,2.65
2023-05-14T14:34:36.737Z,2.88
2023-05-14T14:37:04.450Z,2.80
2023-05-14T14:39:33.546Z,2.75
2023-05-14T14:42:01.275Z,2.70
2023-05-14T14:44:28.962Z,2.90
2023-05-14T14:46:56.728Z,2.90
2023-05-14T14:49:24.782Z,2.80
2023-05-14T14:54:20.075Z,2.80
2023-05-14T14:56:52.266Z,3.67
2023-05-14T14:59:19.986Z,3.35
2023-05-14T15:01:47.797Z,2.75
2023-05-14T15:04:15.671Z,3.30
2023-05-14T15:06:43.360Z,3.05
2023-05-14T15:09:11.063Z,3.47
2023-05-14T15:11:38.740Z,2.85
2023-05-14T15:14:07.921Z,3.00
2023-05-14T15:16:35.749Z,3.00
2023-05-14T15:19:03.707Z,3.05
2023-05-14T15:21:31.999Z,2.92
2023-05-14T15:23:59.805Z,3.05
2023-05-14T15:26:27.453Z,2.90
2023-05-14T15:28:55.432Z,2.85
2023-05-14T15:31:24.738Z,2.83
2023-05-14T15:33:52.964Z,2.75
2023-05-14T15:36:20.770Z,2.97
2023-05-14T15:38:48.746Z,2.90
2023-05-14T15:41:16.547Z,2.80
2023-05-14T15:43:44.293Z,2.80
2023-05-14T15:46:12.577Z,3.47
2023-05-14T15:48:42.141Z,3.85
2023-05-14T15:51:09.919Z,3.50
2023-05-14T15:53:37.742Z,3.40
2023-05-14T15:56:05.923Z,3.95
2023-05-14T16:01:01.483Z,4.28
2023-05-14T16:03:29.309Z,4.20
2023-05-14T16:05:58.412Z,4.55
2023-05-14T16:08:26.098Z,4.40
2023-05-14T16:10:53.814Z,4.05
2023-05-14T16:13:21.441Z,4.15
2023-05-14T16:15:49.470Z,5.00
2023-05-14T16:18:17.485Z,4.22
2023-05-14T16:20:45.170Z,4.72
2023-05-14T16:23:14.531Z,4.35
2023-05-14T16:25:42.365Z,4.30
2023-05-14T16:28:10.150Z,4.35
2023-05-14T16:30:37.811Z,4.20
2023-05-14T16:33:06.408Z,4.43
2023-05-14T16:35:34.240Z,4.32
2023-05-14T16:38:02.042Z,4.00
2023-05-14T16:40:31.083Z,5.00
2023-05-14T16:42:58.795Z,4.63
2023-05-14T16:45:26.710Z,5.03
2023-05-14T16:47:54.732Z,4.60
2023-05-14T16:50:22.484Z,4.75
2023-05-14T16:52:50.332Z,4.93
2023-05-14T16:55:19.491Z,5.25
2023-05-14T16:57:48.710Z,4.95
2023-05-14T17:00:17.886Z,4.93
2023-05-14T17:02:49.070Z,5.30
2023-05-14T17:05:17.307Z,5.50
2023-05-14T17:07:45.060Z,5.40
2023-05-14T17:10:12.740Z,5.82
2023-05-14T17:12:40.504Z,5.20
2023-05-14T17:15:10.864Z,6.07
2023-05-14T17:17:38.671Z,5.57
2023-05-14T17:20:07.352Z,6.32
2023-05-14T17:22:35.521Z,7.05
2023-05-14T17:25:03.710Z,6.75
2023-05-14T17:27:33.286Z,7.50
2023-05-14T17:30:01.641Z,6.38
2023-05-14T17:34:59.286Z,6.15
2023-05-14T17:37:27.400Z,5.95
2023-05-14T17:39:55.267Z,6.40
2023-05-14T17:42:22.987Z,7.00
2023-05-14T17:44:50.734Z,6.28
2023-05-14T17:47:20.601Z,6.90
2023-05-14T17:49:50.836Z,6.68
2023-05-14T17:52:19.087Z,6.43
2023-05-14T17:54:46.910Z,6.28
2023-05-14T17:57:14.627Z,5.90
2023-05-14T17:59:42.449Z,6.22
2023-05-14T18:02:10.137Z,6.05
2023-05-14T18:04:39.725Z,6.35
2023-05-14T18:07:08.905Z,6.90
2023-05-14T18:09:36.679Z,6.50
2023-05-14T18:12:04.463Z,6.00
2023-05-14T18:14:32.243Z,6.07
2023-05-14T18:17:00.082Z,5.95
2023-05-14T18:19:27.987Z,6.15
2023-05-14T18:21:56.204Z,6.68
2023-05-14T18:24:26.171Z,5.47
2023-05-14T18:26:53.997Z,5.85
2023-05-14T18:29:21.797Z,5.75
2023-05-14T18:31:49.586Z,5.40
2023-05-14T18:34:18.025Z,5.40
2023-05-14T18:36:47.884Z,5.50
2023-05-14T18:39:20.145Z,5.53
2023-05-14T18:41:53.175Z,6.10
2023-05-14T18:44:21.171Z,5.33
2023-05-14T18:46:49.230Z,5.10
2023-05-14T18:49:17.236Z,5.10
2023-05-14T18:51:45.170Z,5.55
2023-05-14T18:54:13.078Z,5.68
2023-05-14T18:56:45.519Z,5.75
2023-05-14T18:59:19.114Z,6.00
2023-05-14T19:01:47.098Z,5.83
2023-05-14T19:04:14.974Z,5.88
2023-05-14T19:06:42.985Z,5.50
2023-05-14T19:09:10.854Z,5.18
2023-05-14T19:11:38.912Z,5.30
2023-05-14T19:14:06.857Z,5.55
2023-05-14T19:16:36.536Z,5.28
2023-05-14T19:19:05.048Z,5.40
2023-05-14T19:21:32.818Z,5.93
2023-05-14T19:24:02.982Z,5.22
2023-05-14T19:26:30.798Z,5.63
2023-05-14T19:28:59.070Z,5.43
2023-05-14T19:31:27.058Z,5.75
2023-05-14T19:33:56.387Z,6.57
2023-05-14T19:36:24.092Z,6.03
2023-05-14T19:38:51.823Z,5.22
2023-05-14T19:41:19.571Z,5.50
2023-05-14T19:43:47.340Z,5.75
2023-05-14T19:46:15.200Z,6.05
2023-05-14T19:48:43.036Z,5.38
2023-05-14T19:51:12.109Z,5.80
2023-05-14T19:53:39.869Z,5.97
2023-05-14T19:56:07.705Z,5.03
2023-05-14T19:58:35.458Z,5.50
2023-05-14T20:01:03.257Z,6.68
2023-05-14T20:03:31.143Z,5.50
2023-05-14T20:05:58.894Z,5.60
2023-05-14T20:08:29.024Z,5.07
2023-05-14T20:10:56.964Z,5.43
2023-05-14T20:13:25.483Z,5.93
2023-05-14T20:18:22.947Z,5.20
2023-05-14T20:20:50.664Z,5.85
2023-05-14T20:23:18.513Z,6.18
2023-05-14T20:25:47.798Z,5.95
2023-05-14T20:28:15.684Z,6.07
2023-05-14T20:30:43.350Z,6.35
2023-05-14T20:33:12.959Z,6.00
2023-05-14T20:35:43.829Z,5.00
2023-05-14T20:38:12.739Z,5.37
2023-05-14T20:40:41.110Z,5.07
2023-05-14T20:43:10.289Z,4.85
2023-05-14T20:45:38.029Z,5.50
2023-05-14T20:48:10.046Z,5.45
2023-05-14T20:50:37.954Z,5.00
2023-05-14T20:53:05.887Z,5.60
2023-05-14T20:55:33.943Z,5.63
2023-05-14T20:58:01.720Z,5.15
2023-05-14T21:00:31.096Z,5.20
2023-05-14T21:03:00.207Z,5.67
2023-05-14T21:05:28.271Z,5.70
2023-05-14T21:07:56.103Z,5.10
2023-05-14T21:10:24.044Z,5.78
2023-05-14T21:12:52.448Z,5.53
2023-05-14T21:15:20.593Z,6.15
2023-05-14T21:17:49.756Z,6.78
2023-05-14T21:20:17.609Z,6.90
2023-05-14T21:22:45.756Z,6.47
2023-05-14T21:25:13.711Z,6.63
2023-05-14T21:27:41.448Z,7.10
2023-05-14T21:30:10.520Z,7.00
2023-05-14T21:32:38.222Z,6.30
2023-05-14T21:35:08.097Z,7.23
2023-05-14T21:37:35.959Z,6.93
2023-05-14T21:40:03.645Z,6.82
2023-05-14T21:42:31.428Z,7.13
2023-05-14T21:44:59.093Z,8.07
2023-05-14T21:47:27.661Z,8.80
2023-05-14T21:52:24.367Z,10.50
2023-05-14T21:54:52.116Z,9.83
2023-05-14T21:57:20.075Z,9.00
2023-05-14T21:59:50.480Z,10.10
2023-05-14T22:02:18.357Z,10.20
2023-05-14T22:04:46.903Z,9.25
2023-05-14T22:07:14.581Z,10.07
2023-05-14T22:09:46.492Z,11.10
2023-05-14T22:12:14.275Z,10.13
2023-05-14T22:14:42.031Z,10.57
2023-05-14T22:17:09.824Z,11.25
2023-05-14T22:19:37.435Z,11.80
2023-05-14T22:22:05.526Z,11.50
2023-05-14T22:24:33.120Z,12.02
2023-05-14T22:27:02.298Z,12.53
2023-05-14T22:29:30.078Z,13.60
2023-05-14T22:31:57.974Z,12.77
2023-05-14T22:34:25.736Z,13.07
2023-05-14T22:36:53.562Z,13.47
2023-05-14T22:39:21.463Z,13.63
2023-05-14T22:41:54.728Z,13.25
2023-05-14T22:44:24.127Z,13.80
2023-05-14T22:46:52.102Z,13.47
2023-05-14T22:49:19.784Z,14.40
2023-05-14T22:51:47.445Z,13.47
2023-05-14T22:54:15.112Z,13.47
2023-05-14T22:56:42.878Z,15.40
2023-05-14T22:59:10.646Z,15.93
2023-05-14T23:01:40.526Z,16.30
2023-05-14T23:04:08.324Z,14.40
2023-05-14T23:06:36.464Z,15.00
2023-05-14T23:09:04.207Z,15.27
2023-05-14T23:11:31.950Z,16.03
2023-05-14T23:13:59.644Z,16.40
2023-05-14T23:16:27.412Z,15.00
2023-05-14T23:18:56.528Z,16.17
2023-05-14T23:21:24.689Z,16.23
2023-05-14T23:23:52.400Z,16.30
2023-05-14T23:26:20.108Z,15.90
2023-05-14T23:28:48.293Z,17.07
2023-05-14T23:31:16.094Z,16.08
2023-05-14T23:33:45.037Z,15.60
2023-05-14T23:36:14.257Z,17.27
2023-05-14T23:38:42.148Z,17.70
2023-05-14T23:41:09.837Z,16.60
2023-05-14T23:43:38.165Z,17.83
2023-05-14T23:46:06.218Z,16.88
2023-05-14T23:48:33.922Z,17.42
2023-05-14T23:51:01.760Z,16.53
2023-05-14T23:53:30.849Z,16.92
2023-05-14T23:55:58.664Z,16.60
2023-05-14T23:58:26.483Z,18.05
